createdAt,value
2022-10-25T00:00:50.080Z,98.91
2022-10-25T00:03:37.710Z,99.32
2022-10-25T00:06:25.450Z,100.00
2022-10-25T00:09:12.774Z,100.00
2022-10-25T00:12:00.261Z,100.00
2022-10-25T00:14:47.699Z,100.00
2022-10-25T00:17:36.429Z,100.00
2022-10-25T00:20:23.948Z,100.00
2022-10-25T00:23:11.271Z,100.00
2022-10-25T00:26:03.013Z,100.00
2022-10-25T00:28:50.391Z,100.00
2022-10-25T00:31:40.099Z,100.00
2022-10-25T00:34:28.692Z,100.00
2022-10-25T00:37:16.352Z,100.00
2022-10-25T00:40:04.587Z,100.00
2022-10-25T00:42:53.099Z,100.00
2022-10-25T00:45:40.799Z,100.00
2022-10-25T00:48:29.160Z,100.00
2022-10-25T00:51:18.191Z,100.00
2022-10-25T00:54:06.308Z,100.00
2022-10-25T00:56:55.606Z,100.00
2022-10-25T00:59:43.896Z,100.00
2022-10-25T01:02:32.006Z,100.00
2022-10-25T01:05:20.139Z,100.00
2022-10-25T01:08:09.336Z,100.00
2022-10-25T01:10:57.003Z,100.00
2022-10-25T01:13:44.518Z,100.00
2022-10-25T01:16:39.678Z,100.00
2022-10-25T01:19:44.181Z,100.00
2022-10-25T01:22:39.813Z,100.00
2022-10-25T01:25:56.602Z,100.00
2022-10-25T01:29:02.114Z,100.00
2022-10-25T01:31:55.230Z,100.00
2022-10-25T01:34:48.075Z,100.00
2022-10-25T01:37:41.636Z,100.00
2022-10-25T01:40:35.100Z,100.00
2022-10-25T01:43:32.884Z,100.00
2022-10-25T01:46:25.846Z,100.00
2022-10-25T01:49:22.659Z,100.00
2022-10-25T01:52:10.636Z,100.00
2022-10-25T01:54:58.211Z,100.00
2022-10-25T01:58:06.069Z,100.00
2022-10-25T02:01:00.806Z,100.00
2022-10-25T02:03:57.259Z,100.00
2022-10-25T02:06:56.618Z,100.00
2022-10-25T02:09:54.323Z,100.00
2022-10-25T02:12:50.571Z,100.00
2022-10-25T02:15:41.552Z,100.00
2022-10-25T02:21:27.640Z,100.00
2022-10-25T02:24:21.145Z,99.84
2022-10-25T02:27:11.778Z,100.00
2022-10-25T02:30:00.231Z,100.00
2022-10-25T02:32:47.930Z,100.00
2022-10-25T02:35:35.120Z,100.00
2022-10-25T02:38:22.493Z,100.00
2022-10-25T02:41:11.799Z,100.00
2022-10-25T02:43:59.125Z,99.33
2022-10-25T02:46:46.485Z,99.14
2022-10-25T02:49:33.748Z,99.89
2022-10-25T02:52:21.032Z,99.97
2022-10-25T02:55:09.146Z,99.26
2022-10-25T02:57:57.604Z,99.12
2022-10-25T03:00:45.267Z,98.30
2022-10-25T03:03:33.007Z,99.14
2022-10-25T03:06:20.265Z,98.46
2022-10-25T03:09:07.320Z,98.49
2022-10-25T03:11:54.990Z,99.14
2022-10-25T03:14:43.853Z,98.53
2022-10-25T03:17:31.351Z,98.45
2022-10-25T03:20:18.713Z,99.39
2022-10-25T03:23:06.333Z,98.95
2022-10-25T03:25:54.575Z,99.27
2022-10-25T03:28:41.854Z,99.29
2022-10-25T03:31:30.818Z,100.00
2022-10-25T03:34:18.656Z,100.00
2022-10-25T03:37:06.171Z,100.00
2022-10-25T03:39:54.338Z,100.00
2022-10-25T03:42:41.409Z,100.00
2022-10-25T03:45:29.329Z,100.00
2022-10-25T03:48:17.822Z,100.00
2022-10-25T03:51:05.316Z,100.00
2022-10-25T03:53:52.750Z,100.00
2022-10-25T03:56:40.078Z,100.00
2022-10-25T03:59:27.887Z,100.00
2022-10-25T04:02:16.209Z,99.61
2022-10-25T04:05:05.085Z,99.12
2022-10-25T04:07:52.323Z,99.99
2022-10-25T04:10:39.528Z,99.24
2022-10-25T04:13:26.998Z,100.00
2022-10-25T04:16:18.311Z,100.00
2022-10-25T04:19:06.975Z,100.00
2022-10-25T04:21:55.650Z,99.73
2022-10-25T04:24:43.356Z,99.31
2022-10-25T04:27:30.721Z,100.00
2022-10-25T04:30:18.365Z,99.58
2022-10-25T04:33:06.045Z,98.99
2022-10-25T04:35:57.591Z,98.02
2022-10-25T04:38:49.224Z,98.17
2022-10-25T04:41:36.499Z,98.17
2022-10-25T04:44:23.808Z,98.38
2022-10-25T04:47:11.228Z,98.17
2022-10-25T04:49:58.495Z,98.82
2022-10-25T04:52:46.234Z,97.71
2022-10-25T04:55:35.744Z,97.72
2022-10-25T04:58:27.418Z,98.54
2022-10-25T05:01:19.209Z,97.70
2022-10-25T05:04:06.723Z,97.71
2022-10-25T05:06:54.168Z,97.96
2022-10-25T05:09:43.909Z,97.38
2022-10-25T05:12:36.219Z,97.28
2022-10-25T05:15:23.727Z,97.14
2022-10-25T05:18:10.913Z,97.75
2022-10-25T05:21:00.945Z,97.12
2022-10-25T05:23:48.305Z,97.28
2022-10-25T05:26:36.940Z,97.35
2022-10-25T05:29:25.692Z,97.77
2022-10-25T05:32:12.984Z,96.96
2022-10-25T05:35:00.769Z,96.39
2022-10-25T05:37:49.094Z,97.24
2022-10-25T05:40:36.199Z,96.30
2022-10-25T05:43:23.539Z,97.03
2022-10-25T05:46:15.631Z,97.14
2022-10-25T05:49:03.508Z,96.50
2022-10-25T05:51:50.728Z,96.56
2022-10-25T05:54:38.266Z,97.39
2022-10-25T05:57:25.580Z,97.07
2022-10-25T06:00:14.436Z,96.75
2022-10-25T06:03:03.990Z,96.93
2022-10-25T06:05:51.006Z,97.01
2022-10-25T06:08:39.435Z,96.39
2022-10-25T06:11:28.792Z,96.97
2022-10-25T06:14:16.198Z,95.91
2022-10-25T06:17:03.802Z,95.94
2022-10-25T06:19:52.671Z,96.74
2022-10-25T06:22:40.188Z,96.14
2022-10-25T06:25:27.619Z,96.04
2022-10-25T06:28:14.982Z,95.43
2022-10-25T06:31:03.145Z,96.16
2022-10-25T06:33:50.416Z,95.98
2022-10-25T06:36:39.229Z,96.12
2022-10-25T06:39:26.562Z,95.62
2022-10-25T06:42:13.930Z,95.56
2022-10-25T06:45:01.539Z,95.81
2022-10-25T06:47:48.898Z,95.52
2022-10-25T06:50:36.524Z,94.30
2022-10-25T06:53:25.700Z,94.27
2022-10-25T06:56:14.932Z,94.60
2022-10-25T06:59:02.774Z,95.33
2022-10-25T07:01:50.284Z,95.46
2022-10-25T07:04:37.709Z,95.52
2022-10-25T07:07:24.781Z,96.28
2022-10-25T07:10:13.562Z,96.20
2022-10-25T07:13:01.376Z,96.88
2022-10-25T07:15:48.614Z,97.49
2022-10-25T07:18:37.436Z,96.02
2022-10-25T07:21:24.959Z,95.82
2022-10-25T07:24:12.418Z,96.96
2022-10-25T07:27:01.551Z,96.38
2022-10-25T07:29:49.529Z,95.48
2022-10-25T07:32:41.487Z,95.81
2022-10-25T07:35:35.497Z,94.86
2022-10-25T07:38:29.720Z,94.25
2022-10-25T07:41:17.377Z,94.43
2022-10-25T07:44:06.316Z,95.27
2022-10-25T07:46:55.702Z,93.11
2022-10-25T07:49:43.496Z,93.25
2022-10-25T07:52:30.699Z,93.54
2022-10-25T07:55:18.290Z,93.55
2022-10-25T07:58:07.142Z,93.28
2022-10-25T08:01:02.187Z,93.03
2022-10-25T08:03:49.980Z,91.86
2022-10-25T08:06:37.329Z,92.01
2022-10-25T08:09:37.827Z,91.90
2022-10-25T08:12:26.068Z,91.38
2022-10-25T08:15:14.235Z,90.80
2022-10-25T08:18:04.531Z,89.58
2022-10-25T08:21:07.490Z,89.09
2022-10-25T08:23:55.319Z,88.38
2022-10-25T08:26:42.917Z,89.21
2022-10-25T08:29:29.898Z,89.16
2022-10-25T08:32:17.948Z,88.31
2022-10-25T08:35:07.428Z,86.08
2022-10-25T08:37:55.215Z,86.15
2022-10-25T08:40:52.564Z,84.04
2022-10-25T08:44:03.240Z,85.58
2022-10-25T08:46:57.385Z,85.14
2022-10-25T08:49:54.173Z,85.03
2022-10-25T08:52:47.114Z,85.23
2022-10-25T08:55:41.651Z,83.56
2022-10-25T08:58:47.596Z,84.50
2022-10-25T09:01:40.340Z,85.00
2022-10-25T09:04:30.445Z,83.84
2022-10-25T09:07:40.596Z,84.75
2022-10-25T09:10:53.898Z,84.30
2022-10-25T09:13:50.938Z,85.89
2022-10-25T09:16:48.245Z,85.68
2022-10-25T09:19:40.134Z,84.89
2022-10-25T09:22:29.818Z,83.75
2022-10-25T09:25:24.197Z,83.55
2022-10-25T09:28:18.915Z,83.96
2022-10-25T09:31:11.642Z,84.10
2022-10-25T09:34:04.703Z,83.69
2022-10-25T09:36:58.382Z,83.23
2022-10-25T09:39:50.308Z,82.26
2022-10-25T09:42:42.411Z,80.73
2022-10-25T09:45:38.517Z,81.79
2022-10-25T09:48:32.828Z,81.51
2022-10-25T09:51:25.630Z,81.76
2022-10-25T09:54:20.112Z,81.58
2022-10-25T09:57:07.745Z,82.76
2022-10-25T09:59:54.980Z,83.29
2022-10-25T10:02:43.612Z,82.59
2022-10-25T10:05:32.329Z,83.44
2022-10-25T10:08:19.845Z,83.39
2022-10-25T10:11:15.416Z,83.06
2022-10-25T10:14:10.052Z,83.35
2022-10-25T10:16:59.146Z,83.57
2022-10-25T10:20:09.265Z,83.34
2022-10-25T10:22:56.681Z,84.07
2022-10-25T10:25:46.969Z,82.73
2022-10-25T10:28:34.439Z,83.16
2022-10-25T10:31:22.060Z,83.66
2022-10-25T10:34:28.707Z,83.38
2022-10-25T10:37:21.701Z,83.42
2022-10-25T10:40:25.917Z,82.73
2022-10-25T10:43:24.651Z,81.96
2022-10-25T10:46:16.477Z,81.34
2022-10-25T10:49:04.987Z,78.91
2022-10-25T10:51:52.732Z,76.95
2022-10-25T10:54:50.617Z,76.76
2022-10-25T10:57:38.486Z,75.87
2022-10-25T11:00:29.077Z,77.71
2022-10-25T11:03:38.215Z,75.31
2022-10-25T11:06:28.060Z,76.70
2022-10-25T11:09:19.492Z,77.19
2022-10-25T11:12:12.224Z,78.09
2022-10-25T11:14:59.821Z,76.20
2022-10-25T11:17:53.751Z,76.46
2022-10-25T11:20:49.881Z,76.97
2022-10-25T11:23:47.686Z,76.59
2022-10-25T11:26:46.929Z,76.95
2022-10-25T11:30:05.555Z,74.64
2022-10-25T11:33:21.558Z,74.93
2022-10-25T11:36:21.620Z,75.73
2022-10-25T11:39:23.153Z,75.21
2022-10-25T11:42:29.572Z,75.11
2022-10-25T11:45:27.712Z,75.84
2022-10-25T11:48:40.454Z,75.12
2022-10-25T11:51:37.778Z,76.52
2022-10-25T11:54:34.957Z,76.25
2022-10-25T11:57:33.753Z,76.71
2022-10-25T12:00:24.712Z,75.23
2022-10-25T12:03:26.721Z,75.17
2022-10-25T12:06:23.201Z,74.48
2022-10-25T12:09:23.011Z,74.25
2022-10-25T12:12:14.068Z,74.42
2022-10-25T12:15:03.906Z,74.91
2022-10-25T12:17:53.874Z,73.09
2022-10-25T12:20:43.080Z,73.21
2022-10-25T12:23:33.504Z,73.32
2022-10-25T12:26:26.939Z,73.57
2022-10-25T12:29:19.093Z,74.60
2022-10-25T12:32:15.971Z,72.73
2022-10-25T12:35:08.244Z,72.42
2022-10-25T12:37:59.037Z,72.68
2022-10-25T12:40:49.959Z,73.52
2022-10-25T12:43:44.866Z,73.87
2022-10-25T12:46:57.381Z,73.86
2022-10-25T12:50:27.907Z,73.36
2022-10-25T12:53:42.277Z,73.13
2022-10-25T12:56:45.998Z,72.56
2022-10-25T12:59:52.893Z,72.48
2022-10-25T13:02:59.567Z,72.81
2022-10-25T13:06:22.730Z,73.43
2022-10-25T13:09:12.798Z,73.35
2022-10-25T13:12:02.668Z,73.61
2022-10-25T13:14:52.850Z,73.09
2022-10-25T13:18:00.823Z,72.84
2022-10-25T13:20:50.388Z,73.37
2022-10-25T13:24:03.733Z,73.18
2022-10-25T13:27:20.033Z,72.87
2022-10-25T13:30:31.951Z,71.56
2022-10-25T13:33:33.760Z,72.37
2022-10-25T13:36:48.349Z,72.19
2022-10-25T13:39:43.700Z,71.51
2022-10-25T13:42:34.808Z,70.97
2022-10-25T13:45:30.033Z,72.48
2022-10-25T13:48:30.740Z,72.04
2022-10-25T13:51:21.442Z,71.60
2022-10-25T13:54:13.417Z,72.68
2022-10-25T13:57:02.438Z,72.36
2022-10-25T14:00:03.063Z,73.57
2022-10-25T14:03:23.130Z,73.05
2022-10-25T14:06:17.536Z,73.03
2022-10-25T14:09:17.052Z,72.12
2022-10-25T14:12:15.578Z,72.53
2022-10-25T14:15:08.676Z,71.81
2022-10-25T14:17:58.604Z,71.89
2022-10-25T14:20:48.335Z,72.07
2022-10-25T14:23:37.159Z,72.76
2022-10-25T14:26:25.983Z,73.32
2022-10-25T14:29:16.400Z,72.81
2022-10-25T14:32:13.697Z,73.84
2022-10-25T14:35:00.930Z,74.11
2022-10-25T14:37:48.332Z,73.96
2022-10-25T14:40:35.554Z,72.87
2022-10-25T14:43:26.761Z,73.28
2022-10-25T14:46:17.540Z,74.13
2022-10-25T14:49:04.995Z,74.34
2022-10-25T14:51:56.459Z,74.67
2022-10-25T14:54:47.578Z,74.69
2022-10-25T14:57:36.347Z,75.41
2022-10-25T15:00:25.424Z,75.25
2022-10-25T15:03:15.228Z,75.13
2022-10-25T15:06:04.072Z,75.38
2022-10-25T15:09:14.897Z,74.87
2022-10-25T15:12:07.592Z,75.07
2022-10-25T15:14:55.923Z,75.29
2022-10-25T15:17:51.517Z,76.00
2022-10-25T15:20:40.384Z,75.90
2022-10-25T15:23:27.706Z,77.35
2022-10-25T15:26:23.776Z,76.69
2022-10-25T15:29:11.187Z,77.78
2022-10-25T15:31:58.652Z,78.08
2022-10-25T15:34:47.865Z,77.71
2022-10-25T15:37:40.429Z,77.88
2022-10-25T15:40:27.760Z,78.09
2022-10-25T15:43:15.171Z,79.55
2022-10-25T15:46:02.899Z,79.48
2022-10-25T15:48:50.731Z,79.45
2022-10-25T15:51:41.846Z,80.54
2022-10-25T15:54:30.729Z,80.71
2022-10-25T15:57:19.803Z,81.13
2022-10-25T16:00:08.751Z,80.96
2022-10-25T16:03:00.349Z,82.16
2022-10-25T16:05:49.836Z,82.70
2022-10-25T16:08:37.741Z,82.64
2022-10-25T16:11:27.514Z,83.30
2022-10-25T16:14:21.409Z,83.43
2022-10-25T16:17:10.883Z,83.75
2022-10-25T16:19:59.850Z,82.26
2022-10-25T16:22:48.582Z,82.89
2022-10-25T16:25:36.929Z,83.71
2022-10-25T16:31:17.459Z,85.65
2022-10-25T16:34:04.879Z,85.38
2022-10-25T16:36:53.019Z,86.74
2022-10-25T16:39:40.877Z,86.83
2022-10-25T16:42:30.428Z,87.25
2022-10-25T16:45:24.251Z,86.93
2022-10-25T16:48:11.755Z,86.99
2022-10-25T16:50:59.272Z,88.04
2022-10-25T16:53:48.334Z,88.07
2022-10-25T16:56:35.651Z,88.25
2022-10-25T16:59:23.070Z,88.51
2022-10-25T17:02:17.885Z,88.18
2022-10-25T17:05:05.837Z,87.38
2022-10-25T17:07:53.488Z,87.71
2022-10-25T17:10:43.766Z,88.50
2022-10-25T17:13:33.107Z,88.71
2022-10-25T17:16:20.387Z,88.31
2022-10-25T17:19:10.392Z,88.60
2022-10-25T17:21:57.896Z,88.39
2022-10-25T17:24:45.273Z,88.92
2022-10-25T17:27:32.575Z,88.85
2022-10-25T17:30:21.700Z,89.08
2022-10-25T17:33:08.912Z,89.97
2022-10-25T17:35:57.752Z,90.48
2022-10-25T17:38:45.668Z,89.95
2022-10-25T17:41:32.797Z,89.80
2022-10-25T17:44:20.389Z,90.30
2022-10-25T17:47:07.618Z,90.01
2022-10-25T17:50:00.886Z,89.99
2022-10-25T17:52:50.676Z,90.06
2022-10-25T17:55:41.089Z,90.82
2022-10-25T17:58:28.596Z,91.61
2022-10-25T18:01:18.494Z,92.53
2022-10-25T18:04:05.985Z,92.44
2022-10-25T18:06:53.450Z,91.38
2022-10-25T18:09:41.993Z,92.64
2022-10-25T18:12:30.470Z,93.64
2022-10-25T18:15:17.758Z,93.82
2022-10-25T18:18:05.632Z,95.82
2022-10-25T18:20:53.242Z,95.75
2022-10-25T18:23:41.756Z,94.40
2022-10-25T18:26:30.636Z,93.87
2022-10-25T18:29:18.068Z,94.76
2022-10-25T18:32:06.199Z,94.90
2022-10-25T18:34:53.120Z,94.54
2022-10-25T18:37:40.724Z,94.44
2022-10-25T18:40:27.799Z,95.35
2022-10-25T18:43:16.899Z,95.26
2022-10-25T18:46:04.179Z,95.41
2022-10-25T18:48:52.220Z,94.93
2022-10-25T18:51:40.601Z,93.11
2022-10-25T18:54:27.910Z,91.94
2022-10-25T18:57:15.235Z,92.77
2022-10-25T19:00:04.984Z,93.15
2022-10-25T19:02:54.200Z,93.36
2022-10-25T19:05:42.909Z,94.45
2022-10-25T19:08:30.364Z,94.72
2022-10-25T19:11:18.629Z,95.82
2022-10-25T19:14:08.163Z,96.31
2022-10-25T19:16:57.593Z,96.75
2022-10-25T19:19:47.072Z,97.40
2022-10-25T19:22:34.724Z,98.08
2022-10-25T19:25:23.897Z,98.47
2022-10-25T19:28:12.917Z,97.21
2022-10-25T19:31:08.290Z,96.42
2022-10-25T19:34:00.167Z,96.65
2022-10-25T19:36:48.261Z,96.90
2022-10-25T19:39:37.782Z,95.74
2022-10-25T19:42:26.491Z,94.99
2022-10-25T19:45:15.517Z,95.14
2022-10-25T19:48:05.138Z,95.16
2022-10-25T19:50:54.751Z,95.25
2022-10-25T19:53:43.358Z,94.37
2022-10-25T19:56:31.339Z,94.98
2022-10-25T19:59:19.021Z,94.11
2022-10-25T20:02:07.145Z,95.59
2022-10-25T20:04:54.336Z,95.92
2022-10-25T20:07:43.575Z,93.89
2022-10-25T20:10:31.552Z,93.76
2022-10-25T20:13:19.325Z,94.25
2022-10-25T20:16:07.910Z,94.51
2022-10-25T20:18:56.443Z,93.08
2022-10-25T20:21:43.864Z,94.19
2022-10-25T20:24:33.091Z,94.38
2022-10-25T20:27:20.395Z,93.39
2022-10-25T20:30:08.526Z,93.42
2022-10-25T20:32:55.789Z,92.86
2022-10-25T20:35:44.301Z,92.39
2022-10-25T20:38:32.362Z,91.97
2022-10-25T20:41:23.756Z,92.71
2022-10-25T20:44:11.648Z,93.07
2022-10-25T20:46:59.317Z,92.40
2022-10-25T20:49:46.338Z,92.41
2022-10-25T20:52:34.784Z,93.03
2022-10-25T20:55:22.872Z,92.83
2022-10-25T20:58:11.841Z,93.21
2022-10-25T21:00:59.128Z,94.20
2022-10-25T21:03:46.151Z,94.29
2022-10-25T21:06:33.906Z,94.32
2022-10-25T21:09:21.307Z,95.98
2022-10-25T21:12:08.479Z,96.90
2022-10-25T21:14:57.340Z,96.48
2022-10-25T21:17:49.969Z,96.77
2022-10-25T21:20:38.548Z,97.81
2022-10-25T21:23:26.150Z,98.47
2022-10-25T21:26:13.714Z,98.24
2022-10-25T21:29:00.821Z,97.58
2022-10-25T21:31:50.519Z,96.98
2022-10-25T21:34:37.836Z,97.46
2022-10-25T21:37:24.883Z,97.49
2022-10-25T21:40:12.900Z,98.48
2022-10-25T21:43:00.329Z,97.19
2022-10-25T21:45:47.999Z,97.01
2022-10-25T21:48:37.126Z,97.11
2022-10-25T21:51:25.409Z,97.32
2022-10-25T21:54:12.571Z,97.20
2022-10-25T21:56:59.638Z,97.02
2022-10-25T21:59:46.374Z,97.99
2022-10-25T22:02:33.413Z,98.56
2022-10-25T22:05:22.278Z,97.30
2022-10-25T22:08:09.586Z,97.07
2022-10-25T22:13:46.975Z,96.97
2022-10-25T22:16:35.499Z,96.93
2022-10-25T22:22:17.887Z,98.15
2022-10-25T22:25:05.488Z,98.86
2022-10-25T22:27:52.838Z,99.10
2022-10-25T22:30:40.627Z,98.99
2022-10-25T22:33:27.824Z,99.15
2022-10-25T22:36:17.148Z,99.34
2022-10-25T22:39:05.873Z,99.34
2022-10-25T22:41:54.857Z,99.84
2022-10-25T22:44:42.223Z,99.82
2022-10-25T22:47:29.760Z,99.40
2022-10-25T22:50:17.253Z,98.38
2022-10-25T22:53:04.519Z,98.12
2022-10-25T22:55:58.149Z,98.65
2022-10-25T22:58:49.956Z,98.03
2022-10-25T23:01:38.530Z,98.48
2022-10-25T23:04:25.589Z,98.69
2022-10-25T23:07:12.908Z,98.99
2022-10-25T23:10:00.258Z,99.15
2022-10-25T23:12:49.923Z,99.31
2022-10-25T23:15:37.173Z,99.28
2022-10-25T23:18:26.399Z,98.77
2022-10-25T23:21:17.247Z,98.67
2022-10-25T23:24:04.818Z,98.60
2022-10-25T23:26:52.048Z,98.32
2022-10-25T23:29:40.342Z,98.61
2022-10-25T23:32:27.720Z,99.04
2022-10-25T23:35:15.027Z,99.51
2022-10-25T23:38:02.758Z,99.08
2022-10-25T23:40:50.078Z,98.83
2022-10-25T23:43:37.594Z,98.93
2022-10-25T23:46:26.633Z,98.77
2022-10-25T23:49:14.146Z,98.71
2022-10-25T23:52:01.235Z,99.52
2022-10-25T23:54:48.737Z,99.74
2022-10-25T23:57:36.548Z,98.71
